createdAt,value
2019-03-01T00:01:04.120Z,55.20
2019-03-01T00:03:36.962Z,55.00
2019-03-01T00:06:26.545Z,55.00
2019-03-01T00:09:26.575Z,55.00
2019-03-01T00:12:53.474Z,54.90
2019-03-01T00:15:55.790Z,54.90
2019-03-01T00:19:08.510Z,55.00
2019-03-01T00:22:20.723Z,54.90
2019-03-01T00:25:32.162Z,54.90
2019-03-01T00:28:36.227Z,54.80
2019-03-01T00:31:42.631Z,54.60
2019-03-01T00:34:52.782Z,54.70
2019-03-01T00:38:07.939Z,54.70
2019-03-01T00:41:28.429Z,54.60
2019-03-01T00:44:34.632Z,54.60
2019-03-01T00:47:05.515Z,54.70
2019-03-01T00:49:36.325Z,54.70
2019-03-01T00:52:07.423Z,54.40
2019-03-01T00:54:38.577Z,54.40
2019-03-01T00:57:09.327Z,54.50
2019-03-01T00:59:40.082Z,54.50
2019-03-01T01:02:11.698Z,54.60
2019-03-01T01:04:42.534Z,54.60
2019-03-01T01:07:13.255Z,54.40
2019-03-01T01:09:44.198Z,54.40
2019-03-01T01:12:14.888Z,54.40
2019-03-01T01:14:45.566Z,54.50
2019-03-01T01:17:16.108Z,54.50
2019-03-01T01:19:46.938Z,54.50
2019-03-01T01:22:17.877Z,54.40
2019-03-01T01:24:48.727Z,54.60
2019-03-01T01:27:19.662Z,54.40
2019-03-01T01:29:50.374Z,54.70
2019-03-01T01:32:21.135Z,54.60
2019-03-01T01:34:53.043Z,54.60
2019-03-01T01:37:25.428Z,54.60
2019-03-01T01:39:57.135Z,54.60
2019-03-01T01:42:27.891Z,54.70
2019-03-01T01:44:58.507Z,54.70
2019-03-01T01:47:29.214Z,54.90
2019-03-01T01:50:01.606Z,54.70
2019-03-01T01:52:32.543Z,54.70
2019-03-01T01:55:03.170Z,54.80
2019-03-01T01:57:34.211Z,54.80
2019-03-01T02:00:05.987Z,54.90
2019-03-01T02:02:37.318Z,54.80
2019-03-01T02:05:08.333Z,55.10
2019-03-01T02:07:39.023Z,55.00
2019-03-01T02:10:10.115Z,54.80
2019-03-01T02:12:41.003Z,55.10
2019-03-01T02:15:12.741Z,55.30
2019-03-01T02:17:43.889Z,55.10
2019-03-01T02:20:16.546Z,55.00
2019-03-01T02:22:47.254Z,55.20
2019-03-01T02:25:19.747Z,55.00
2019-03-01T02:27:50.400Z,55.50
2019-03-01T02:30:23.291Z,55.40
2019-03-01T02:32:54.224Z,55.20
2019-03-01T02:35:26.619Z,55.50
2019-03-01T02:37:57.337Z,55.40
2019-03-01T02:40:28.531Z,55.50
2019-03-01T02:42:59.326Z,55.40
2019-03-01T02:45:30.769Z,55.40
2019-03-01T02:48:01.776Z,55.30
2019-03-01T02:50:32.740Z,55.40
2019-03-01T02:53:03.455Z,55.20
2019-03-01T02:55:33.943Z,55.30
2019-03-01T02:58:04.688Z,55.30
2019-03-01T03:00:35.247Z,55.40
2019-03-01T03:03:06.163Z,55.70
2019-03-01T03:05:50.329Z,55.50
2019-03-01T03:08:21.015Z,55.40
2019-03-01T03:10:51.527Z,55.30
2019-03-01T03:13:22.551Z,55.30
2019-03-01T03:15:54.268Z,55.40
2019-03-01T03:18:24.847Z,55.50
2019-03-01T03:20:55.394Z,55.40
2019-03-01T03:23:26.232Z,55.60
2019-03-01T03:25:57.055Z,55.40
2019-03-01T03:28:27.780Z,55.70
2019-03-01T03:30:58.464Z,55.30
2019-03-01T03:33:29.440Z,55.50
2019-03-01T03:36:01.059Z,55.40
2019-03-01T03:38:31.760Z,55.50
2019-03-01T03:41:02.399Z,55.50
2019-03-01T03:43:33.268Z,55.50
2019-03-01T03:46:03.829Z,55.50
2019-03-01T03:48:36.319Z,55.60
2019-03-01T03:51:07.105Z,55.70
2019-03-01T03:53:39.748Z,55.50
2019-03-01T03:56:10.564Z,55.60
2019-03-01T03:58:41.025Z,55.60
2019-03-01T04:01:11.967Z,55.50
2019-03-01T04:03:42.531Z,55.50
2019-03-01T04:06:13.553Z,55.80
2019-03-01T04:08:44.520Z,55.60
2019-03-01T04:11:15.233Z,55.70
2019-03-01T04:13:46.141Z,56.00
2019-03-01T04:16:16.731Z,55.70
2019-03-01T04:18:47.403Z,55.90
2019-03-01T04:21:18.663Z,55.80
2019-03-01T04:23:49.327Z,55.90
2019-03-01T04:26:20.324Z,55.80
2019-03-01T04:28:51.178Z,55.80
2019-03-01T04:31:24.808Z,56.10
2019-03-01T04:33:55.321Z,56.00
2019-03-01T04:36:26.161Z,55.90
2019-03-01T04:38:56.946Z,55.90
2019-03-01T04:41:27.698Z,55.90
2019-03-01T04:43:58.267Z,55.90
2019-03-01T04:46:29.092Z,55.90
2019-03-01T04:48:59.698Z,55.80
2019-03-01T04:51:30.802Z,56.00
2019-03-01T04:54:02.851Z,56.00
2019-03-01T04:56:33.747Z,55.80
2019-03-01T04:59:05.650Z,55.80
2019-03-01T05:01:36.551Z,56.00
2019-03-01T05:04:07.233Z,55.90
2019-03-01T05:06:38.336Z,55.80
2019-03-01T05:09:09.986Z,55.90
2019-03-01T05:11:40.918Z,56.10
2019-03-01T05:14:11.542Z,56.00
2019-03-01T05:16:42.403Z,56.00
2019-03-01T05:19:13.248Z,56.00
2019-03-01T05:21:43.866Z,56.20
2019-03-01T05:24:14.582Z,56.10
2019-03-01T05:26:45.249Z,55.90
2019-03-01T05:29:16.100Z,56.00
2019-03-01T05:31:47.384Z,55.80
2019-03-01T05:34:18.066Z,55.90
2019-03-01T05:36:49.813Z,55.90
2019-03-01T05:39:21.229Z,56.10
2019-03-01T05:41:52.507Z,56.00
2019-03-01T05:44:23.595Z,56.20
2019-03-01T05:46:54.254Z,56.00
2019-03-01T05:49:24.924Z,55.90
2019-03-01T05:51:55.750Z,55.80
2019-03-01T05:54:26.604Z,55.90
2019-03-01T05:56:57.282Z,55.90
2019-03-01T05:59:29.530Z,55.90
2019-03-01T06:02:39.752Z,55.80
2019-03-01T06:05:14.186Z,56.10
2019-03-01T06:08:13.707Z,56.00
2019-03-01T06:11:25.285Z,56.00
2019-03-01T06:14:07.947Z,56.00
2019-03-01T06:17:09.378Z,56.20
2019-03-01T06:19:49.203Z,56.20
2019-03-01T06:22:57.149Z,56.20
2019-03-01T06:26:13.746Z,56.10
2019-03-01T06:29:21.801Z,56.20
2019-03-01T06:32:28.193Z,56.20
2019-03-01T06:35:27.399Z,56.00
2019-03-01T06:39:15.294Z,56.10
2019-03-01T06:42:11.005Z,56.10
2019-03-01T06:45:34.959Z,56.10
2019-03-01T06:48:05.867Z,55.90
2019-03-01T06:50:41.016Z,55.70
2019-03-01T06:53:11.810Z,55.70
2019-03-01T06:55:54.978Z,55.70
2019-03-01T06:58:34.403Z,55.50
2019-03-01T07:01:12.302Z,55.40
2019-03-01T07:03:43.839Z,55.40
2019-03-01T07:06:16.038Z,55.20
2019-03-01T07:08:46.563Z,55.20
2019-03-01T07:11:17.545Z,55.20
2019-03-01T07:13:47.987Z,55.10
2019-03-01T07:16:19.191Z,55.10
2019-03-01T07:18:49.842Z,55.00
2019-03-01T07:21:20.587Z,55.20
2019-03-01T07:23:51.026Z,54.90
2019-03-01T07:26:22.819Z,55.00
2019-03-01T07:28:53.633Z,55.00
2019-03-01T07:31:24.431Z,55.10
2019-03-01T07:33:55.183Z,55.10
2019-03-01T07:36:25.959Z,55.10
2019-03-01T07:38:56.835Z,55.10
2019-03-01T07:41:27.842Z,55.10
2019-03-01T07:43:58.336Z,55.00
2019-03-01T07:46:29.083Z,55.00
2019-03-01T07:48:59.883Z,54.80
2019-03-01T07:51:31.536Z,55.10
2019-03-01T07:54:02.351Z,54.40
2019-03-01T07:56:33.214Z,54.20
2019-03-01T07:59:04.455Z,54.00
2019-03-01T08:01:35.134Z,53.50
2019-03-01T08:04:05.930Z,53.30
2019-03-01T08:06:36.777Z,52.80
2019-03-01T08:09:12.399Z,52.50
2019-03-01T08:11:43.394Z,52.10
2019-03-01T08:14:13.937Z,51.90
2019-03-01T08:16:44.831Z,51.60
2019-03-01T08:19:21.990Z,51.40
2019-03-01T08:21:49.840Z,51.00
2019-03-01T08:24:21.558Z,50.60
2019-03-01T08:26:52.585Z,50.40
2019-03-01T08:29:23.552Z,50.00
2019-03-01T08:31:56.725Z,49.80
2019-03-01T08:34:27.963Z,49.40
2019-03-01T08:36:58.747Z,49.20
2019-03-01T08:39:31.116Z,49.00
2019-03-01T08:42:02.069Z,49.00
2019-03-01T08:44:32.751Z,48.80
2019-03-01T08:47:03.854Z,48.80
2019-03-01T08:49:34.410Z,48.90
2019-03-01T08:52:06.354Z,49.10
2019-03-01T08:54:37.105Z,49.10
2019-03-01T08:57:08.152Z,49.40
2019-03-01T08:59:38.775Z,49.40
2019-03-01T09:02:11.883Z,49.30
2019-03-01T09:04:50.738Z,49.20
2019-03-01T09:07:15.306Z,49.30
2019-03-01T09:09:46.187Z,49.20
2019-03-01T09:12:17.965Z,49.30
2019-03-01T09:14:49.936Z,49.10
2019-03-01T09:17:20.712Z,49.10
2019-03-01T09:19:51.320Z,49.00
2019-03-01T09:22:24.242Z,49.00
2019-03-01T09:24:54.518Z,49.10
2019-03-01T09:27:26.876Z,49.10
2019-03-01T09:29:59.046Z,49.00
2019-03-01T09:32:33.817Z,48.70
2019-03-01T09:35:33.389Z,48.80
2019-03-01T09:38:07.717Z,48.70
2019-03-01T09:40:37.131Z,48.70
2019-03-01T09:43:08.000Z,48.80
2019-03-01T09:45:38.790Z,48.70
2019-03-01T09:48:12.154Z,48.60
2019-03-01T09:50:43.242Z,48.40
2019-03-01T09:53:13.886Z,48.10
2019-03-01T09:55:44.519Z,47.80
2019-03-01T09:58:15.692Z,48.00
2019-03-01T10:00:56.279Z,48.40
2019-03-01T10:03:22.924Z,48.80
2019-03-01T10:05:54.136Z,48.50
2019-03-01T10:08:25.043Z,48.30
2019-03-01T10:10:55.681Z,48.40
2019-03-01T10:13:26.559Z,48.10
2019-03-01T10:15:57.215Z,48.10
2019-03-01T10:18:28.222Z,48.00
2019-03-01T10:20:59.022Z,48.00
2019-03-01T10:23:29.789Z,47.90
2019-03-01T10:26:00.814Z,48.00
2019-03-01T10:28:31.427Z,48.10
2019-03-01T10:31:02.463Z,48.00
2019-03-01T10:33:33.118Z,47.10
2019-03-01T10:36:04.989Z,46.50
2019-03-01T10:38:37.688Z,45.70
2019-03-01T10:41:08.173Z,44.80
2019-03-01T10:43:38.960Z,43.70
2019-03-01T10:46:09.804Z,40.90
2019-03-01T10:48:40.397Z,37.50
2019-03-01T10:51:11.429Z,33.20
2019-03-01T10:53:42.153Z,29.60
2019-03-01T10:56:12.978Z,27.50
2019-03-01T10:58:43.658Z,26.10
2019-03-01T11:01:14.268Z,24.50
2019-03-01T11:03:45.426Z,24.20
2019-03-01T11:06:16.246Z,25.50
2019-03-01T11:08:46.991Z,27.00
2019-03-01T11:11:17.846Z,28.60
2019-03-01T11:13:48.509Z,30.00
2019-03-01T11:16:19.034Z,31.10
2019-03-01T11:18:50.155Z,29.90
2019-03-01T11:21:20.887Z,29.90
2019-03-01T11:23:51.488Z,29.90
2019-03-01T11:26:22.687Z,29.60
2019-03-01T11:28:53.467Z,29.50
2019-03-01T11:31:24.290Z,30.00
2019-03-01T11:33:55.142Z,29.70
2019-03-01T11:36:26.091Z,29.20
2019-03-01T11:38:57.121Z,27.90
2019-03-01T11:41:28.281Z,27.70
2019-03-01T11:43:59.053Z,27.90
2019-03-01T11:46:29.866Z,29.20
2019-03-01T11:49:00.338Z,28.40
2019-03-01T11:51:31.099Z,29.50
2019-03-01T11:54:02.055Z,30.40
2019-03-01T11:56:32.777Z,28.90
2019-03-01T11:59:03.534Z,28.50
2019-03-01T12:01:34.124Z,29.20
2019-03-01T12:04:04.926Z,29.50
2019-03-01T12:06:37.276Z,29.20
2019-03-01T12:09:08.551Z,29.70
2019-03-01T12:11:39.678Z,30.00
2019-03-01T12:14:10.218Z,30.40
2019-03-01T12:16:41.238Z,31.90
2019-03-01T12:19:12.387Z,32.40
2019-03-01T12:21:42.902Z,32.80
2019-03-01T12:24:43.589Z,34.40
2019-03-01T12:27:16.628Z,35.70
2019-03-01T12:29:47.530Z,35.90
2019-03-01T12:32:18.307Z,36.00
2019-03-01T12:34:49.440Z,36.70
2019-03-01T12:37:20.178Z,36.10
2019-03-01T12:39:50.715Z,36.60
2019-03-01T12:42:21.426Z,36.00
2019-03-01T12:44:52.464Z,35.40
2019-03-01T12:47:23.454Z,35.50
2019-03-01T12:49:53.970Z,35.60
2019-03-01T12:52:24.587Z,35.20
2019-03-01T12:54:55.440Z,35.20
2019-03-01T12:57:27.083Z,35.10
2019-03-01T12:59:57.555Z,35.00
2019-03-01T13:02:28.192Z,35.00
2019-03-01T13:04:59.092Z,35.20
2019-03-01T13:07:29.956Z,35.60
2019-03-01T13:10:02.812Z,35.30
2019-03-01T13:12:33.303Z,35.40
2019-03-01T13:15:04.338Z,35.40
2019-03-01T13:17:37.236Z,35.10
2019-03-01T13:20:10.903Z,34.40
2019-03-01T13:22:43.972Z,35.30
2019-03-01T13:25:15.747Z,35.20
2019-03-01T13:27:48.799Z,35.20
2019-03-01T13:30:20.462Z,35.50
2019-03-01T13:32:51.179Z,35.40
2019-03-01T13:35:22.275Z,35.40
2019-03-01T13:37:55.471Z,35.10
2019-03-01T13:40:26.866Z,34.90
2019-03-01T13:42:57.996Z,35.30
2019-03-01T13:45:28.551Z,36.00
2019-03-01T13:47:59.699Z,36.30
2019-03-01T13:50:30.527Z,36.50
2019-03-01T13:53:01.145Z,36.60
2019-03-01T13:55:32.159Z,36.20
2019-03-01T13:58:02.834Z,36.70
2019-03-01T14:00:35.329Z,36.70
2019-03-01T14:03:06.191Z,37.00
2019-03-01T14:05:37.390Z,36.80
2019-03-01T14:08:09.249Z,37.30
2019-03-01T14:10:41.761Z,37.50
2019-03-01T14:13:14.445Z,37.60
2019-03-01T14:15:45.070Z,38.40
2019-03-01T14:18:15.893Z,38.40
2019-03-01T14:20:46.544Z,38.40
2019-03-01T14:23:17.546Z,39.00
2019-03-01T14:25:48.591Z,39.20
2019-03-01T14:28:19.299Z,39.90
2019-03-01T14:30:49.817Z,38.50
2019-03-01T14:33:20.850Z,38.90
2019-03-01T14:35:51.474Z,39.50
2019-03-01T14:38:22.190Z,39.30
2019-03-01T14:40:56.036Z,39.50
2019-03-01T14:43:25.571Z,39.20
2019-03-01T14:45:56.306Z,39.00
2019-03-01T14:48:27.965Z,38.50
2019-03-01T14:50:58.812Z,39.20
2019-03-01T14:53:31.126Z,39.20
2019-03-01T14:56:10.086Z,39.00
2019-03-01T14:58:52.369Z,39.40
2019-03-01T15:01:35.151Z,39.70
2019-03-01T15:04:05.907Z,39.60
2019-03-01T15:06:37.314Z,40.70
2019-03-01T15:09:09.524Z,40.10
2019-03-01T15:11:44.154Z,40.60
2019-03-01T15:14:13.767Z,40.50
2019-03-01T15:16:44.977Z,40.60
2019-03-01T15:19:15.946Z,40.60
2019-03-01T15:21:46.630Z,40.50
2019-03-01T15:24:17.499Z,40.60
2019-03-01T15:26:48.007Z,40.80
2019-03-01T15:29:18.570Z,40.60
2019-03-01T15:31:51.102Z,40.70
2019-03-01T15:34:24.070Z,40.70
2019-03-01T15:36:56.110Z,41.00
2019-03-01T15:39:26.411Z,41.50
2019-03-01T15:41:57.104Z,41.30
2019-03-01T15:44:27.750Z,41.30
2019-03-01T15:46:58.538Z,41.50
2019-03-01T15:49:29.546Z,41.80
2019-03-01T15:52:00.383Z,42.30
2019-03-01T15:54:32.445Z,42.00
2019-03-01T15:57:05.463Z,42.20
2019-03-01T15:59:36.287Z,42.50
2019-03-01T16:02:07.130Z,42.50
2019-03-01T16:04:38.054Z,42.60
2019-03-01T16:07:08.899Z,42.70
2019-03-01T16:09:39.650Z,42.80
2019-03-01T16:12:10.527Z,43.00
2019-03-01T16:14:41.187Z,43.20
2019-03-01T16:17:12.130Z,43.40
2019-03-01T16:19:46.966Z,43.60
2019-03-01T16:22:18.831Z,43.60
2019-03-01T16:24:48.705Z,43.70
2019-03-01T16:27:19.315Z,43.80
2019-03-01T16:29:50.002Z,43.90
2019-03-01T16:32:20.658Z,44.00
2019-03-01T16:34:51.859Z,44.40
2019-03-01T16:37:26.128Z,44.40
2019-03-01T16:40:00.347Z,44.40
2019-03-01T16:42:38.027Z,44.50
2019-03-01T16:45:02.487Z,44.70
2019-03-01T16:47:33.147Z,44.70
2019-03-01T16:50:06.540Z,45.00
2019-03-01T16:52:36.562Z,44.90
2019-03-01T16:55:08.634Z,45.20
2019-03-01T16:57:39.380Z,45.70
2019-03-01T17:00:14.765Z,45.20
2019-03-01T17:02:45.052Z,45.30
2019-03-01T17:05:16.170Z,45.30
2019-03-01T17:07:48.334Z,45.50
2019-03-01T17:10:19.793Z,45.50
2019-03-01T17:12:52.051Z,45.60
2019-03-01T17:15:22.686Z,45.60
2019-03-01T17:17:55.294Z,45.90
2019-03-01T17:20:25.802Z,45.80
2019-03-01T17:22:59.775Z,46.00
2019-03-01T17:25:29.114Z,46.00
2019-03-01T17:28:00.096Z,46.00
2019-03-01T17:30:30.762Z,46.20
2019-03-01T17:33:02.086Z,46.00
2019-03-01T17:35:33.068Z,46.30
2019-03-01T17:38:04.087Z,46.30
2019-03-01T17:40:35.914Z,46.30
2019-03-01T17:43:09.313Z,46.40
2019-03-01T17:45:41.670Z,46.60
2019-03-01T17:48:12.226Z,46.50
2019-03-01T17:50:44.791Z,46.70
2019-03-01T17:53:15.391Z,47.00
2019-03-01T17:55:46.048Z,46.80
2019-03-01T17:58:17.039Z,46.80
2019-03-01T18:00:48.116Z,46.90
2019-03-01T18:03:18.772Z,47.00
2019-03-01T18:05:49.471Z,47.10
2019-03-01T18:08:20.143Z,47.30
2019-03-01T18:10:50.845Z,47.30
2019-03-01T18:13:21.535Z,47.30
2019-03-01T18:15:52.109Z,47.30
2019-03-01T18:18:22.748Z,47.50
2019-03-01T18:20:53.448Z,47.40
2019-03-01T18:23:24.185Z,47.60
2019-03-01T18:25:54.786Z,47.60
2019-03-01T18:28:28.386Z,47.90
2019-03-01T18:30:57.858Z,47.80
2019-03-01T18:33:29.019Z,47.90
2019-03-01T18:36:00.012Z,47.90
2019-03-01T18:38:31.338Z,48.00
2019-03-01T18:41:02.935Z,48.00
2019-03-01T18:43:33.967Z,48.10
2019-03-01T18:46:04.722Z,48.20
2019-03-01T18:48:35.770Z,48.30
2019-03-01T18:51:08.160Z,48.30
2019-03-01T18:53:39.359Z,48.40
2019-03-01T18:56:09.985Z,48.40
2019-03-01T18:58:40.570Z,48.40
2019-03-01T19:01:15.963Z,48.40
2019-03-01T19:03:46.799Z,48.40
2019-03-01T19:06:17.982Z,48.50
2019-03-01T19:08:50.533Z,48.50
2019-03-01T19:11:21.750Z,48.60
2019-03-01T19:13:55.102Z,48.60
2019-03-01T19:16:28.324Z,48.70
2019-03-01T19:18:57.581Z,48.70
2019-03-01T19:21:28.470Z,48.80
2019-03-01T19:23:59.254Z,48.70
2019-03-01T19:26:30.088Z,48.70
2019-03-01T19:29:02.727Z,48.80
2019-03-01T19:31:33.298Z,48.80
2019-03-01T19:34:03.979Z,48.90
2019-03-01T19:36:35.516Z,48.90
2019-03-01T19:39:16.547Z,48.90
2019-03-01T19:41:47.705Z,48.90
2019-03-01T19:44:19.447Z,49.10
2019-03-01T19:46:51.323Z,49.10
2019-03-01T19:49:22.805Z,49.10
2019-03-01T19:51:53.439Z,49.30
2019-03-01T19:54:24.274Z,49.30
2019-03-01T19:56:57.766Z,49.20
2019-03-01T19:59:27.564Z,49.30
2019-03-01T20:01:58.699Z,49.30
2019-03-01T20:04:29.538Z,49.40
2019-03-01T20:07:01.433Z,49.40
2019-03-01T20:09:33.238Z,49.50
2019-03-01T20:12:04.230Z,49.40
2019-03-01T20:14:34.882Z,49.50
2019-03-01T20:17:05.575Z,49.60
2019-03-01T20:19:36.228Z,49.70
2019-03-01T20:22:07.271Z,49.70
2019-03-01T20:24:40.402Z,49.80
2019-03-01T20:27:10.347Z,49.90
2019-03-01T20:29:40.982Z,49.90
2019-03-01T20:32:12.546Z,50.20
2019-03-01T20:34:44.012Z,50.10
2019-03-01T20:37:15.387Z,50.10
2019-03-01T20:39:47.514Z,50.10
2019-03-01T20:42:23.556Z,50.20
2019-03-01T20:44:53.132Z,50.20
2019-03-01T20:47:24.018Z,50.20
2019-03-01T20:49:54.542Z,50.30
2019-03-01T20:52:26.190Z,50.40
2019-03-01T20:55:00.655Z,50.50
2019-03-01T20:57:31.594Z,50.40
2019-03-01T21:00:02.484Z,50.30
2019-03-01T21:02:34.772Z,50.40
2019-03-01T21:05:06.010Z,50.40
2019-03-01T21:07:36.874Z,50.60
2019-03-01T21:10:12.571Z,50.50
2019-03-01T21:12:43.441Z,50.60
2019-03-01T21:15:15.390Z,50.60
2019-03-01T21:17:46.348Z,50.50
2019-03-01T21:20:19.605Z,50.60
2019-03-01T21:22:50.565Z,50.70
2019-03-01T21:25:21.647Z,50.70
2019-03-01T21:27:52.394Z,50.80
2019-03-01T21:30:24.971Z,50.80
2019-03-01T21:32:57.167Z,51.00
2019-03-01T21:35:28.067Z,51.00
2019-03-01T21:37:59.193Z,51.50
2019-03-01T21:40:31.460Z,51.10
2019-03-01T21:43:02.300Z,51.30
2019-03-01T21:45:33.635Z,51.50
2019-03-01T21:48:04.654Z,51.20
2019-03-01T21:50:38.597Z,51.60
2019-03-01T21:53:08.173Z,51.50
2019-03-01T21:55:40.766Z,51.50
2019-03-01T21:58:11.465Z,51.40
2019-03-01T22:00:43.663Z,51.50
2019-03-01T22:03:14.648Z,51.50
2019-03-01T22:05:48.302Z,51.70
2019-03-01T22:08:17.655Z,51.80
2019-03-01T22:10:48.271Z,51.80
2019-03-01T22:13:19.206Z,51.70
2019-03-01T22:15:50.402Z,51.60
2019-03-01T22:18:23.748Z,51.90
2019-03-01T22:20:53.150Z,52.00
2019-03-01T22:23:23.667Z,51.90
2019-03-01T22:25:55.705Z,52.10
2019-03-01T22:28:26.392Z,52.00
2019-03-01T22:31:00.299Z,52.00
2019-03-01T22:33:29.858Z,52.00
2019-03-01T22:36:00.968Z,52.10
2019-03-01T22:38:32.265Z,52.00
2019-03-01T22:41:03.955Z,52.00
2019-03-01T22:43:35.762Z,52.00
2019-03-01T22:46:08.266Z,52.30
2019-03-01T22:48:46.779Z,52.10
2019-03-01T22:51:14.389Z,52.40
2019-03-01T22:53:44.139Z,52.20
2019-03-01T22:56:14.987Z,52.40
2019-03-01T22:58:45.986Z,52.50
2019-03-01T23:01:21.991Z,52.50
2019-03-01T23:04:01.746Z,52.50
2019-03-01T23:06:32.394Z,52.60
2019-03-01T23:09:10.380Z,52.60
2019-03-01T23:11:38.786Z,52.60
2019-03-01T23:14:09.431Z,52.60
2019-03-01T23:16:40.514Z,52.60
2019-03-01T23:19:12.670Z,52.80
2019-03-01T23:21:43.193Z,52.80
2019-03-01T23:24:13.884Z,52.80
2019-03-01T23:26:44.798Z,52.80
2019-03-01T23:29:18.812Z,52.80
2019-03-01T23:31:50.060Z,52.80
2019-03-01T23:34:20.979Z,53.00
2019-03-01T23:36:51.852Z,53.10
2019-03-01T23:39:24.644Z,53.10
2019-03-01T23:41:55.032Z,53.30
2019-03-01T23:44:25.646Z,53.10
2019-03-01T23:46:59.462Z,53.30
2019-03-01T23:49:28.726Z,53.10
2019-03-01T23:51:59.530Z,53.50
2019-03-01T23:54:31.070Z,53.50
2019-03-01T23:57:01.920Z,53.50
2019-03-01T23:59:33.895Z,53.50
